Terminal Aerodrome Forecast
Issued by NWS

Home | Current Version | Previous Version | Text Only | Print | Product List | Glossary On
Versions: 1 2 3 4 5 6 7 8 9 10 11 12 13
000
FTUS45 KREV 250538
TAFMMH
TAF
KMMH 250538Z 2506/2606 VRB03KT P6SM SCT200
     FM251900 20014G22KT P6SM SCT200
     FM260300 20010G16KT P6SM SCT150=

USA.gov is the U.S. government's official web portal to all federal, state and local government web resources and services.